createdAt,value
2023-03-21T00:00:22.885Z,1016.13
2023-03-21T00:01:25.801Z,1016.10
2023-03-21T00:02:28.935Z,1016.06
2023-03-21T00:04:04.200Z,1016.05
2023-03-21T00:05:21.790Z,1016.07
2023-03-21T00:06:25.436Z,1016.08
2023-03-21T00:08:02.319Z,1016.07
2023-03-21T00:09:05.584Z,1016.07
2023-03-21T00:10:44.992Z,1016.03
2023-03-21T00:12:19.900Z,1016.01
2023-03-21T00:13:22.644Z,1015.95
2023-03-21T00:14:26.894Z,1015.99
2023-03-21T00:16:36.045Z,1015.95
2023-03-21T00:17:40.358Z,1015.96
2023-03-21T00:18:43.294Z,1015.92
2023-03-21T00:20:18.461Z,1015.92
2023-03-21T00:22:12.423Z,1015.93
2023-03-21T00:23:15.317Z,1015.93
2023-03-21T00:24:50.124Z,1015.91
2023-03-21T00:25:53.196Z,1015.94
2023-03-21T00:27:03.495Z,1015.92
2023-03-21T00:29:31.249Z,1015.90
2023-03-21T00:30:34.008Z,1015.87
2023-03-21T00:31:37.067Z,1015.91
2023-03-21T00:34:20.037Z,1015.88
2023-03-21T00:36:53.187Z,1015.91
2023-03-21T00:37:55.994Z,1015.91
2023-03-21T00:39:30.681Z,1015.86
2023-03-21T00:40:53.044Z,1015.85
2023-03-21T00:42:29.412Z,1015.79
2023-03-21T00:44:04.177Z,1015.80
2023-03-21T00:45:07.441Z,1015.77
2023-03-21T00:46:10.511Z,1015.74
2023-03-21T00:48:06.004Z,1015.72
2023-03-21T00:49:09.266Z,1015.69
2023-03-21T00:50:12.091Z,1015.73
2023-03-21T00:51:46.961Z,1015.68
2023-03-21T00:53:20.330Z,1015.66
2023-03-21T00:54:23.311Z,1015.68
2023-03-21T00:55:57.797Z,1015.62
2023-03-21T00:57:00.678Z,1015.62
2023-03-21T00:58:13.181Z,1015.61
2023-03-21T00:59:48.096Z,1015.58
2023-03-21T01:00:23.607Z,1015.58
2023-03-21T01:01:26.903Z,1015.58
2023-03-21T01:02:30.498Z,1015.60
2023-03-21T01:04:22.886Z,1015.56
2023-03-21T01:05:25.700Z,1015.58
2023-03-21T01:06:29.151Z,1015.58
2023-03-21T01:08:08.143Z,1015.60
2023-03-21T01:09:43.082Z,1015.55
2023-03-21T01:10:45.768Z,1015.55
2023-03-21T01:12:20.378Z,1015.56
2023-03-21T01:13:23.017Z,1015.53
2023-03-21T01:14:40.515Z,1015.54
2023-03-21T01:16:15.674Z,1015.52
2023-03-21T01:17:18.776Z,1015.51
2023-03-21T01:18:21.730Z,1015.48
2023-03-21T01:20:10.930Z,1015.50
2023-03-21T01:21:13.886Z,1015.50
2023-03-21T01:22:17.123Z,1015.52
2023-03-21T01:23:51.801Z,1015.50
2023-03-21T01:25:27.311Z,1015.47
2023-03-21T01:26:30.395Z,1015.44
2023-03-21T01:28:04.995Z,1015.46
2023-03-21T01:29:07.725Z,1015.45
2023-03-21T01:30:24.832Z,1015.42
2023-03-21T01:32:06.271Z,1015.36
2023-03-21T01:33:09.331Z,1015.39
2023-03-21T01:34:12.284Z,1015.34
2023-03-21T01:36:21.109Z,1015.38
2023-03-21T01:37:25.817Z,1015.34
2023-03-21T01:38:28.722Z,1015.30
2023-03-21T01:40:03.688Z,1015.36
2023-03-21T01:41:18.747Z,1015.32
2023-03-21T01:42:37.697Z,1015.26
2023-03-21T01:44:12.317Z,1015.31
2023-03-21T01:45:15.123Z,1015.27
2023-03-21T01:46:18.121Z,1015.26
2023-03-21T01:48:28.303Z,1015.26
2023-03-21T01:49:31.093Z,1015.26
2023-03-21T01:50:34.106Z,1015.24
2023-03-21T01:52:35.407Z,1015.22
2023-03-21T01:53:39.786Z,1015.22
2023-03-21T01:54:42.604Z,1015.22
2023-03-21T01:56:17.294Z,1015.21
2023-03-21T01:57:20.306Z,1015.20
2023-03-21T01:58:52.609Z,1015.20
2023-03-21T02:00:23.195Z,1015.21
2023-03-21T02:01:26.221Z,1015.17
2023-03-21T02:02:29.207Z,1015.15
2023-03-21T02:04:28.433Z,1015.10
2023-03-21T02:05:31.336Z,1015.09
2023-03-21T02:06:34.609Z,1015.11
2023-03-21T02:08:09.465Z,1015.08
2023-03-21T02:09:25.529Z,1015.08
2023-03-21T02:10:28.552Z,1015.07
2023-03-21T02:12:03.206Z,1015.02
2023-03-21T02:13:06.067Z,1015.03
2023-03-21T02:14:29.321Z,1015.01
2023-03-21T02:16:04.358Z,1015.00
2023-03-21T02:17:07.714Z,1014.96
2023-03-21T02:18:10.563Z,1014.94
2023-03-21T02:19:59.390Z,1014.96
2023-03-21T02:21:02.255Z,1014.95
2023-03-21T02:22:04.977Z,1014.93
2023-03-21T02:23:39.596Z,1014.92
2023-03-21T02:24:46.275Z,1014.90
2023-03-21T02:26:13.393Z,1014.88
2023-03-21T02:28:02.241Z,1014.86
2023-03-21T02:29:05.238Z,1014.86
2023-03-21T02:30:09.932Z,1014.87
2023-03-21T02:32:43.236Z,1014.83
2023-03-21T02:33:46.060Z,1014.87
2023-03-21T02:34:48.891Z,1014.88
2023-03-21T02:36:39.921Z,1014.80
2023-03-21T02:38:00.622Z,1014.77
2023-03-21T02:39:03.720Z,1014.74
2023-03-21T02:40:38.715Z,1014.69
2023-03-21T02:41:51.350Z,1014.73
2023-03-21T02:43:09.365Z,1014.69
2023-03-21T02:44:53.225Z,1014.68
2023-03-21T02:45:56.424Z,1014.63
2023-03-21T02:47:12.558Z,1014.64
2023-03-21T02:49:01.871Z,1014.63
2023-03-21T02:50:04.985Z,1014.60
2023-03-21T02:51:08.008Z,1014.59
2023-03-21T02:52:51.296Z,1014.60
2023-03-21T02:54:26.432Z,1014.60
2023-03-21T02:55:45.381Z,1014.59
2023-03-21T02:57:20.122Z,1014.58
2023-03-21T02:58:38.560Z,1014.60
2023-03-21T02:59:55.670Z,1014.57
2023-03-21T03:00:28.482Z,1014.56
2023-03-21T03:01:31.894Z,1014.55
2023-03-21T03:02:35.170Z,1014.55
2023-03-21T03:04:32.049Z,1014.47
2023-03-21T03:05:35.362Z,1014.51
2023-03-21T03:06:38.283Z,1014.51
2023-03-21T03:08:13.249Z,1014.51
2023-03-21T03:09:47.444Z,1014.52
2023-03-21T03:10:50.735Z,1014.48
2023-03-21T03:12:25.527Z,1014.49
2023-03-21T03:13:28.357Z,1014.49
2023-03-21T03:15:08.149Z,1014.45
2023-03-21T03:16:43.178Z,1014.44
2023-03-21T03:17:46.054Z,1014.46
2023-03-21T03:18:48.901Z,1014.45
2023-03-21T03:20:37.679Z,1014.48
2023-03-21T03:21:40.955Z,1014.51
2023-03-21T03:22:43.831Z,1014.51
2023-03-21T03:24:18.833Z,1014.48
2023-03-21T03:25:48.743Z,1014.51
2023-03-21T03:26:51.650Z,1014.49
2023-03-21T03:28:26.832Z,1014.47
2023-03-21T03:29:29.553Z,1014.51
2023-03-21T03:31:04.980Z,1014.51
2023-03-21T03:32:44.712Z,1014.49
2023-03-21T03:33:47.738Z,1014.48
2023-03-21T03:34:50.650Z,1014.44
2023-03-21T03:36:38.677Z,1014.46
2023-03-21T03:37:41.727Z,1014.43
2023-03-21T03:38:44.660Z,1014.45
2023-03-21T03:40:19.468Z,1014.39
2023-03-21T03:41:22.933Z,1014.39
2023-03-21T03:43:13.438Z,1014.40
2023-03-21T03:44:48.286Z,1014.40
2023-03-21T03:45:51.300Z,1014.37
2023-03-21T03:46:54.371Z,1014.37
2023-03-21T03:48:53.830Z,1014.38
2023-03-21T03:49:56.491Z,1014.40
2023-03-21T03:50:59.378Z,1014.41
2023-03-21T03:52:33.836Z,1014.32
2023-03-21T03:54:04.755Z,1014.36
2023-03-21T03:55:07.629Z,1014.39
2023-03-21T03:56:42.252Z,1014.39
2023-03-21T03:57:45.182Z,1014.38
2023-03-21T03:58:57.088Z,1014.36
2023-03-21T04:00:23.446Z,1014.35
2023-03-21T04:01:26.777Z,1014.31
2023-03-21T04:02:30.484Z,1014.32
2023-03-21T04:04:21.857Z,1014.33
2023-03-21T04:05:24.889Z,1014.31
2023-03-21T04:06:27.815Z,1014.29
2023-03-21T04:08:02.614Z,1014.30
2023-03-21T04:09:19.183Z,1014.30
2023-03-21T04:10:41.213Z,1014.33
2023-03-21T04:12:15.814Z,1014.33
2023-03-21T04:13:18.681Z,1014.27
2023-03-21T04:14:21.734Z,1014.33
2023-03-21T04:16:13.338Z,1014.33
2023-03-21T04:17:16.532Z,1014.33
2023-03-21T04:18:19.314Z,1014.30
2023-03-21T04:20:02.567Z,1014.26
2023-03-21T04:21:29.687Z,1014.31
2023-03-21T04:22:32.480Z,1014.28
2023-03-21T04:24:07.058Z,1014.27
2023-03-21T04:25:12.302Z,1014.28
2023-03-21T04:26:43.137Z,1014.25
2023-03-21T04:28:17.830Z,1014.27
2023-03-21T04:29:20.674Z,1014.27
2023-03-21T04:30:23.401Z,1014.24
2023-03-21T04:32:18.148Z,1014.24
2023-03-21T04:33:21.142Z,1014.24
2023-03-21T04:34:24.397Z,1014.21
2023-03-21T04:35:59.431Z,1014.22
2023-03-21T04:37:02.464Z,1014.24
2023-03-21T04:38:05.531Z,1014.24
2023-03-21T04:39:40.302Z,1014.20
2023-03-21T04:40:43.886Z,1014.19
2023-03-21T04:41:46.704Z,1014.21
2023-03-21T04:43:21.523Z,1014.19
2023-03-21T04:44:24.350Z,1014.20
2023-03-21T04:45:27.090Z,1014.21
2023-03-21T04:47:02.698Z,1014.19
2023-03-21T04:48:06.009Z,1014.18
2023-03-21T04:49:09.068Z,1014.15
2023-03-21T04:50:44.406Z,1014.16
2023-03-21T04:51:47.269Z,1014.13
2023-03-21T04:52:50.226Z,1014.13
2023-03-21T04:54:24.887Z,1014.14
2023-03-21T04:55:27.742Z,1014.10
2023-03-21T04:56:30.927Z,1014.10
2023-03-21T04:58:05.715Z,1014.08
2023-03-21T04:59:08.515Z,1014.08
2023-03-21T05:00:23.106Z,1014.12
2023-03-21T05:01:26.418Z,1014.09
2023-03-21T05:02:29.292Z,1014.08
2023-03-21T05:04:03.972Z,1014.07
2023-03-21T05:05:52.095Z,1014.12
2023-03-21T05:06:55.372Z,1014.14
2023-03-21T05:07:58.466Z,1014.12
2023-03-21T05:09:33.275Z,1014.08
2023-03-21T05:10:36.288Z,1014.09
2023-03-21T05:11:39.401Z,1014.07
2023-03-21T05:13:14.503Z,1014.13
2023-03-21T05:14:17.494Z,1014.12
2023-03-21T05:15:20.306Z,1014.12
2023-03-21T05:16:56.208Z,1014.12
2023-03-21T05:17:59.534Z,1014.08
2023-03-21T05:19:02.647Z,1014.07
2023-03-21T05:20:37.335Z,1014.13
2023-03-21T05:21:40.719Z,1014.10
2023-03-21T05:22:43.804Z,1014.10
2023-03-21T05:24:18.474Z,1014.10
2023-03-21T05:25:21.359Z,1014.07
2023-03-21T05:26:24.843Z,1014.06
2023-03-21T05:27:59.899Z,1014.07
2023-03-21T05:29:02.700Z,1014.06
2023-03-21T05:30:05.749Z,1014.09
2023-03-21T05:31:40.802Z,1014.08
2023-03-21T05:32:43.786Z,1014.08
2023-03-21T05:33:46.740Z,1014.03
2023-03-21T05:35:21.864Z,1014.06
2023-03-21T05:36:25.940Z,1014.02
2023-03-21T05:37:28.837Z,1014.06
2023-03-21T05:39:03.674Z,1014.06
2023-03-21T05:40:06.786Z,1014.06
2023-03-21T05:41:09.768Z,1014.03
2023-03-21T05:42:44.456Z,1014.04
2023-03-21T05:43:47.293Z,1014.06
2023-03-21T05:44:50.338Z,1014.10
2023-03-21T05:46:25.782Z,1014.06
2023-03-21T05:47:28.920Z,1014.08
2023-03-21T05:48:32.132Z,1014.11
2023-03-21T05:50:06.974Z,1014.06
2023-03-21T05:51:10.110Z,1014.11
2023-03-21T05:52:13.293Z,1014.11
2023-03-21T05:53:48.016Z,1014.08
2023-03-21T05:54:50.967Z,1014.11
2023-03-21T05:55:53.911Z,1014.11
2023-03-21T05:57:28.781Z,1014.09
2023-03-21T05:58:31.875Z,1014.08
2023-03-21T05:59:34.894Z,1014.06
2023-03-21T06:00:23.502Z,1014.08
2023-03-21T06:01:27.939Z,1014.07
2023-03-21T06:02:31.071Z,1014.08
2023-03-21T06:04:06.538Z,1014.04
2023-03-21T06:05:09.834Z,1014.03
2023-03-21T06:06:12.999Z,1014.09
2023-03-21T06:07:47.895Z,1014.09
2023-03-21T06:08:50.993Z,1014.05
2023-03-21T06:09:54.354Z,1014.04
2023-03-21T06:11:29.233Z,1014.04
2023-03-21T06:12:32.358Z,1014.06
2023-03-21T06:13:35.180Z,1014.07
2023-03-21T06:15:09.929Z,1014.05
2023-03-21T06:16:13.019Z,1014.06
2023-03-21T06:17:16.183Z,1013.99
2023-03-21T06:18:50.976Z,1014.03
2023-03-21T06:19:54.051Z,1014.00
2023-03-21T06:20:56.972Z,1013.98
2023-03-21T06:22:31.818Z,1014.02
2023-03-21T06:23:34.967Z,1014.04
2023-03-21T06:24:37.809Z,1014.01
2023-03-21T06:26:12.784Z,1014.00
2023-03-21T06:27:15.627Z,1014.01
2023-03-21T06:28:18.509Z,1013.98
2023-03-21T06:29:53.431Z,1013.99
2023-03-21T06:30:56.276Z,1014.01
2023-03-21T06:31:59.624Z,1013.98
2023-03-21T06:33:34.606Z,1013.97
2023-03-21T06:34:39.434Z,1013.98
2023-03-21T06:35:43.110Z,1014.00
2023-03-21T06:37:18.120Z,1014.01
2023-03-21T06:38:21.160Z,1013.99
2023-03-21T06:39:24.279Z,1014.03
2023-03-21T06:40:59.128Z,1014.09
2023-03-21T06:42:02.132Z,1014.03
2023-03-21T06:43:04.918Z,1014.07
2023-03-21T06:44:39.811Z,1014.03
2023-03-21T06:45:43.200Z,1014.02
2023-03-21T06:46:46.302Z,1014.01
2023-03-21T06:48:21.703Z,1014.01
2023-03-21T06:49:24.840Z,1013.99
2023-03-21T06:50:27.863Z,1013.99
2023-03-21T06:52:02.649Z,1013.98
2023-03-21T06:53:05.755Z,1013.98
2023-03-21T06:54:08.848Z,1013.97
2023-03-21T06:55:44.198Z,1014.03
2023-03-21T06:56:47.123Z,1013.97
2023-03-21T06:57:50.034Z,1014.02
2023-03-21T06:59:24.968Z,1014.00
2023-03-21T07:00:23.970Z,1014.02
2023-03-21T07:01:27.274Z,1014.02
2023-03-21T07:02:30.529Z,1014.02
2023-03-21T07:04:08.894Z,1014.03
2023-03-21T07:05:11.776Z,1014.06
2023-03-21T07:06:14.874Z,1014.06
2023-03-21T07:07:49.561Z,1014.04
2023-03-21T07:08:52.561Z,1014.04
2023-03-21T07:09:55.674Z,1014.08
2023-03-21T07:11:31.648Z,1014.08
2023-03-21T07:12:34.510Z,1014.06
2023-03-21T07:13:37.476Z,1014.01
2023-03-21T07:15:12.138Z,1014.01
2023-03-21T07:16:15.104Z,1013.99
2023-03-21T07:17:18.170Z,1014.03
2023-03-21T07:18:52.786Z,1014.03
2023-03-21T07:19:56.192Z,1014.00
2023-03-21T07:20:59.222Z,1013.99
2023-03-21T07:22:34.001Z,1014.02
2023-03-21T07:23:37.269Z,1014.03
2023-03-21T07:24:40.166Z,1014.02
2023-03-21T07:26:29.923Z,1013.99
2023-03-21T07:27:32.782Z,1014.00
2023-03-21T07:28:38.284Z,1014.04
2023-03-21T07:30:13.218Z,1014.06
2023-03-21T07:31:16.351Z,1014.03
2023-03-21T07:32:19.450Z,1014.01
2023-03-21T07:33:53.956Z,1014.05
2023-03-21T07:34:56.792Z,1013.99
2023-03-21T07:35:59.800Z,1013.99
2023-03-21T07:37:37.494Z,1014.01
2023-03-21T07:38:40.863Z,1014.01
2023-03-21T07:39:43.769Z,1013.96
2023-03-21T07:41:18.596Z,1013.96
2023-03-21T07:42:21.838Z,1013.96
2023-03-21T07:43:24.906Z,1013.95
2023-03-21T07:45:02.588Z,1013.94
2023-03-21T07:46:07.773Z,1013.94
2023-03-21T07:47:11.179Z,1013.95
2023-03-21T07:48:46.582Z,1013.92
2023-03-21T07:49:49.354Z,1013.94
2023-03-21T07:50:52.226Z,1013.94
2023-03-21T07:52:26.970Z,1013.95
2023-03-21T07:53:29.973Z,1013.97
2023-03-21T07:54:32.811Z,1013.95
2023-03-21T07:56:07.977Z,1013.96
2023-03-21T07:57:13.553Z,1013.95
2023-03-21T07:58:16.582Z,1013.98
2023-03-21T07:59:51.325Z,1014.03
2023-03-21T08:00:23.864Z,1013.95
2023-03-21T08:01:26.685Z,1013.96
2023-03-21T08:02:29.863Z,1013.97
2023-03-21T08:04:05.301Z,1013.93
2023-03-21T08:05:08.081Z,1013.96
2023-03-21T08:06:10.990Z,1013.95
2023-03-21T08:07:45.698Z,1013.92
2023-03-21T08:08:48.605Z,1013.91
2023-03-21T08:09:51.405Z,1013.95
2023-03-21T08:11:26.412Z,1014.00
2023-03-21T08:12:29.164Z,1013.97
2023-03-21T08:13:32.027Z,1013.96
2023-03-21T08:15:07.087Z,1013.97
2023-03-21T08:16:10.030Z,1013.95
2023-03-21T08:17:13.302Z,1014.00
2023-03-21T08:18:48.147Z,1013.97
2023-03-21T08:19:51.225Z,1013.99
2023-03-21T08:20:54.286Z,1013.99
2023-03-21T08:22:28.978Z,1013.95
2023-03-21T08:23:31.738Z,1013.96
2023-03-21T08:24:34.570Z,1014.00
2023-03-21T08:26:09.388Z,1013.97
2023-03-21T08:27:12.547Z,1013.97
2023-03-21T08:28:15.300Z,1013.96
2023-03-21T08:29:49.892Z,1013.99
2023-03-21T08:30:53.049Z,1013.95
2023-03-21T08:31:56.262Z,1013.95
2023-03-21T08:33:31.195Z,1013.98
2023-03-21T08:34:34.076Z,1013.95
2023-03-21T08:35:40.340Z,1014.01
2023-03-21T08:37:16.730Z,1013.94
2023-03-21T08:38:19.739Z,1013.94
2023-03-21T08:39:22.694Z,1013.92
2023-03-21T08:41:00.156Z,1013.91
2023-03-21T08:42:03.213Z,1013.90
2023-03-21T08:43:06.126Z,1013.89
2023-03-21T08:44:44.003Z,1013.87
2023-03-21T08:45:47.050Z,1013.82
2023-03-21T08:46:50.419Z,1013.83
2023-03-21T08:48:25.678Z,1013.81
2023-03-21T08:49:28.627Z,1013.80
2023-03-21T08:50:31.768Z,1013.83
2023-03-21T08:52:06.584Z,1013.81
2023-03-21T08:53:09.753Z,1013.78
2023-03-21T08:54:12.874Z,1013.78
2023-03-21T08:55:47.827Z,1013.75
2023-03-21T08:56:50.553Z,1013.74
2023-03-21T08:57:53.350Z,1013.76
2023-03-21T08:59:27.996Z,1013.63
2023-03-21T09:00:23.083Z,1013.61
2023-03-21T09:01:26.213Z,1013.62
2023-03-21T09:02:29.230Z,1013.65
2023-03-21T09:04:03.965Z,1013.61
2023-03-21T09:05:07.388Z,1013.68
2023-03-21T09:06:10.380Z,1013.65
2023-03-21T09:07:45.161Z,1013.63
2023-03-21T09:08:48.124Z,1013.64
2023-03-21T09:10:14.799Z,1013.63
2023-03-21T09:11:53.859Z,1013.69
2023-03-21T09:12:56.842Z,1013.66
2023-03-21T09:13:59.602Z,1013.71
2023-03-21T09:15:34.613Z,1013.65
2023-03-21T09:16:38.364Z,1013.67
2023-03-21T09:17:41.173Z,1013.63
2023-03-21T09:19:15.955Z,1013.55
2023-03-21T09:20:18.703Z,1013.57
2023-03-21T09:21:21.798Z,1013.55
2023-03-21T09:22:56.721Z,1013.58
2023-03-21T09:23:59.716Z,1013.57
2023-03-21T09:25:02.620Z,1013.59
2023-03-21T09:26:38.227Z,1013.63
2023-03-21T09:27:41.869Z,1013.59
2023-03-21T09:28:44.880Z,1013.59
2023-03-21T09:30:19.504Z,1013.54
2023-03-21T09:31:24.077Z,1013.54
2023-03-21T09:32:27.366Z,1013.50
2023-03-21T09:34:02.128Z,1013.46
2023-03-21T09:35:05.032Z,1013.50
2023-03-21T09:36:07.942Z,1013.52
2023-03-21T09:37:43.260Z,1013.49
2023-03-21T09:38:46.377Z,1013.51
2023-03-21T09:39:49.475Z,1013.51
2023-03-21T09:41:24.278Z,1013.57
2023-03-21T09:42:27.436Z,1013.50
2023-03-21T09:43:30.381Z,1013.43
2023-03-21T09:45:05.135Z,1013.39
2023-03-21T09:46:08.298Z,1013.45
2023-03-21T09:47:11.886Z,1013.42
2023-03-21T09:49:02.155Z,1013.34
2023-03-21T09:50:20.793Z,1013.32
2023-03-21T09:51:23.628Z,1013.30
2023-03-21T09:52:58.591Z,1013.29
2023-03-21T09:54:02.886Z,1013.29
2023-03-21T09:55:06.077Z,1013.32
2023-03-21T09:56:41.064Z,1013.25
2023-03-21T09:57:44.037Z,1013.28
2023-03-21T09:58:47.039Z,1013.28
2023-03-21T10:00:23.805Z,1013.28
2023-03-21T10:01:27.075Z,1013.28
2023-03-21T10:02:29.929Z,1013.28
2023-03-21T10:04:04.780Z,1013.30
2023-03-21T10:05:07.901Z,1013.26
2023-03-21T10:06:10.835Z,1013.26
2023-03-21T10:07:45.749Z,1013.22
2023-03-21T10:08:48.627Z,1013.21
2023-03-21T10:09:54.638Z,1013.17
2023-03-21T10:11:30.108Z,1013.18
2023-03-21T10:12:33.016Z,1013.19
2023-03-21T10:13:35.969Z,1013.12
2023-03-21T10:15:10.968Z,1013.16
2023-03-21T10:16:14.279Z,1013.14
2023-03-21T10:17:17.854Z,1013.12
2023-03-21T10:18:52.663Z,1013.08
2023-03-21T10:19:55.643Z,1013.05
2023-03-21T10:20:58.436Z,1013.04
2023-03-21T10:23:00.449Z,1012.99
2023-03-21T10:24:03.256Z,1012.99
2023-03-21T10:25:06.127Z,1012.95
2023-03-21T10:26:40.887Z,1012.95
2023-03-21T10:27:43.876Z,1012.94
2023-03-21T10:29:03.661Z,1012.96
2023-03-21T10:30:39.218Z,1012.86
2023-03-21T10:31:42.789Z,1012.82
2023-03-21T10:32:46.303Z,1012.76
2023-03-21T10:34:23.356Z,1012.72
2023-03-21T10:35:26.353Z,1012.72
2023-03-21T10:36:30.359Z,1012.70
2023-03-21T10:38:05.305Z,1012.65
2023-03-21T10:39:08.229Z,1012.62
2023-03-21T10:40:11.093Z,1012.66
2023-03-21T10:41:45.807Z,1012.69
2023-03-21T10:42:48.662Z,1012.68
2023-03-21T10:43:51.644Z,1012.70
2023-03-21T10:45:26.270Z,1012.68
2023-03-21T10:46:30.817Z,1012.68
2023-03-21T10:47:35.949Z,1012.71
2023-03-21T10:49:13.323Z,1012.72
2023-03-21T10:50:22.739Z,1012.68
2023-03-21T10:51:26.005Z,1012.69
2023-03-21T10:53:00.999Z,1012.67
2023-03-21T10:54:04.022Z,1012.71
2023-03-21T10:55:06.880Z,1012.70
2023-03-21T10:56:41.516Z,1012.75
2023-03-21T10:57:44.454Z,1012.68
2023-03-21T10:58:47.371Z,1012.70
2023-03-21T11:00:23.223Z,1012.70
2023-03-21T11:01:26.653Z,1012.72
2023-03-21T11:02:30.168Z,1012.67
2023-03-21T11:04:05.349Z,1012.66
2023-03-21T11:05:08.557Z,1012.66
2023-03-21T11:06:12.756Z,1012.63
2023-03-21T11:07:47.834Z,1012.65
2023-03-21T11:08:50.786Z,1012.62
2023-03-21T11:09:53.903Z,1012.64
2023-03-21T11:11:35.081Z,1012.65
2023-03-21T11:12:37.862Z,1012.64
2023-03-21T11:13:40.690Z,1012.62
2023-03-21T11:15:15.242Z,1012.59
2023-03-21T11:16:18.286Z,1012.62
2023-03-21T11:17:21.631Z,1012.56
2023-03-21T11:18:56.188Z,1012.54
2023-03-21T11:19:59.099Z,1012.57
2023-03-21T11:21:02.020Z,1012.54
2023-03-21T11:22:36.830Z,1012.47
2023-03-21T11:23:39.872Z,1012.48
2023-03-21T11:24:43.640Z,1012.45
2023-03-21T11:26:18.597Z,1012.37
2023-03-21T11:27:21.884Z,1012.34
2023-03-21T11:28:24.839Z,1012.33
2023-03-21T11:29:59.648Z,1012.32
2023-03-21T11:31:02.983Z,1012.42
2023-03-21T11:32:06.040Z,1012.39
2023-03-21T11:33:40.737Z,1012.40
2023-03-21T11:34:43.749Z,1012.44
2023-03-21T11:35:47.665Z,1012.42
2023-03-21T11:37:23.038Z,1012.41
2023-03-21T11:38:25.931Z,1012.40
2023-03-21T11:39:28.965Z,1012.43
2023-03-21T11:41:03.740Z,1012.39
2023-03-21T11:42:06.785Z,1012.36
2023-03-21T11:43:09.814Z,1012.31
2023-03-21T11:44:45.346Z,1012.44
2023-03-21T11:45:48.782Z,1012.36
2023-03-21T11:46:53.967Z,1012.36
2023-03-21T11:48:29.645Z,1012.33
2023-03-21T11:49:32.541Z,1012.32
2023-03-21T11:50:41.614Z,1012.35
2023-03-21T11:52:16.353Z,1012.34
2023-03-21T11:53:19.234Z,1012.34
2023-03-21T11:54:22.121Z,1012.34
2023-03-21T11:55:56.991Z,1012.33
2023-03-21T11:56:59.926Z,1012.31
2023-03-21T11:58:14.360Z,1012.33
2023-03-21T11:59:50.246Z,1012.26
2023-03-21T12:00:23.207Z,1012.26
2023-03-21T12:01:26.100Z,1012.25
2023-03-21T12:02:29.373Z,1012.24
2023-03-21T12:04:06.351Z,1012.17
2023-03-21T12:05:09.537Z,1012.18
2023-03-21T12:06:12.245Z,1012.20
2023-03-21T12:07:47.126Z,1012.15
2023-03-21T12:08:50.101Z,1012.19
2023-03-21T12:09:52.981Z,1012.14
2023-03-21T12:11:27.938Z,1012.10
2023-03-21T12:12:45.133Z,1012.04
2023-03-21T12:13:47.985Z,1012.05
2023-03-21T12:15:22.992Z,1011.92
2023-03-21T12:16:26.742Z,1011.83
2023-03-21T12:17:29.843Z,1011.89
2023-03-21T12:19:05.174Z,1011.90
2023-03-21T12:20:08.097Z,1011.88
2023-03-21T12:21:11.012Z,1011.87
2023-03-21T12:22:46.959Z,1011.88
2023-03-21T12:23:50.171Z,1011.93
2023-03-21T12:24:52.940Z,1011.84
2023-03-21T12:26:28.417Z,1011.83
2023-03-21T12:27:31.374Z,1011.88
2023-03-21T12:28:44.443Z,1011.85
2023-03-21T12:30:19.535Z,1011.79
2023-03-21T12:31:22.983Z,1011.73
2023-03-21T12:32:26.535Z,1011.74
2023-03-21T12:34:04.809Z,1011.77
2023-03-21T12:35:07.755Z,1011.85
2023-03-21T12:36:10.859Z,1011.81
2023-03-21T12:37:46.069Z,1011.77
2023-03-21T12:38:51.163Z,1011.74
2023-03-21T12:39:54.167Z,1011.76
2023-03-21T12:41:28.933Z,1011.72
2023-03-21T12:42:31.778Z,1011.74
2023-03-21T12:43:34.629Z,1011.76
2023-03-21T12:45:21.616Z,1011.82
2023-03-21T12:46:39.534Z,1011.79
2023-03-21T12:47:43.010Z,1011.77
2023-03-21T12:49:18.394Z,1011.76
2023-03-21T12:50:21.540Z,1011.77
2023-03-21T12:51:24.608Z,1011.76
2023-03-21T12:52:59.615Z,1011.74
2023-03-21T12:54:02.487Z,1011.75
2023-03-21T12:55:05.413Z,1011.68
2023-03-21T12:56:40.034Z,1011.67
2023-03-21T12:57:57.152Z,1011.71
2023-03-21T12:59:00.934Z,1011.72
2023-03-21T13:00:23.699Z,1011.71
2023-03-21T13:01:27.753Z,1011.68
2023-03-21T13:02:30.878Z,1011.68
2023-03-21T13:04:16.644Z,1011.73
2023-03-21T13:05:19.811Z,1011.70
2023-03-21T13:06:22.673Z,1011.67
2023-03-21T13:07:57.527Z,1011.59
2023-03-21T13:09:00.552Z,1011.60
2023-03-21T13:10:09.506Z,1011.62
2023-03-21T13:11:46.924Z,1011.59
2023-03-21T13:12:49.735Z,1011.52
2023-03-21T13:13:52.586Z,1011.52
2023-03-21T13:15:35.669Z,1011.53
2023-03-21T13:16:39.113Z,1011.49
2023-03-21T13:17:42.147Z,1011.47
2023-03-21T13:19:16.844Z,1011.44
2023-03-21T13:20:19.809Z,1011.40
2023-03-21T13:21:23.292Z,1011.40
2023-03-21T13:22:59.527Z,1011.36
2023-03-21T13:24:02.980Z,1011.31
2023-03-21T13:25:05.893Z,1011.32
2023-03-21T13:26:40.885Z,1011.31
2023-03-21T13:27:43.789Z,1011.31
2023-03-21T13:28:46.835Z,1011.24
2023-03-21T13:30:24.421Z,1011.25
2023-03-21T13:31:31.945Z,1011.33
2023-03-21T13:32:49.961Z,1011.32
2023-03-21T13:34:24.846Z,1011.20
2023-03-21T13:35:27.882Z,1011.25
2023-03-21T13:36:31.513Z,1011.20
2023-03-21T13:38:06.290Z,1011.23
2023-03-21T13:39:10.893Z,1011.20
2023-03-21T13:40:13.847Z,1011.22
2023-03-21T13:41:48.691Z,1011.19
2023-03-21T13:42:51.743Z,1011.20
2023-03-21T13:43:57.900Z,1011.20
2023-03-21T13:45:36.334Z,1011.15
2023-03-21T13:46:56.367Z,1011.14
2023-03-21T13:47:59.446Z,1011.15
2023-03-21T13:49:49.950Z,1011.12
2023-03-21T13:50:52.815Z,1011.09
2023-03-21T13:51:58.068Z,1011.04
2023-03-21T13:53:33.004Z,1011.09
2023-03-21T13:54:35.964Z,1011.03
2023-03-21T13:55:39.192Z,1011.05
2023-03-21T13:57:14.149Z,1010.97
2023-03-21T13:58:17.167Z,1010.96
2023-03-21T13:59:20.233Z,1010.90
2023-03-21T14:00:23.094Z,1010.80
2023-03-21T14:01:26.320Z,1010.84
2023-03-21T14:02:29.562Z,1010.86
2023-03-21T14:04:07.236Z,1010.82
2023-03-21T14:05:23.010Z,1010.83
2023-03-21T14:06:26.502Z,1010.84
2023-03-21T14:08:21.864Z,1010.83
2023-03-21T14:09:35.071Z,1010.81
2023-03-21T14:10:37.976Z,1010.83
2023-03-21T14:12:18.987Z,1010.79
2023-03-21T14:13:22.059Z,1010.79
2023-03-21T14:14:42.037Z,1010.79
2023-03-21T14:16:42.165Z,1010.77
2023-03-21T14:17:45.365Z,1010.86
2023-03-21T14:19:07.104Z,1010.79
2023-03-21T14:20:42.143Z,1010.78
2023-03-21T14:21:44.956Z,1010.67
2023-03-21T14:22:51.116Z,1010.65
2023-03-21T14:24:25.725Z,1010.63
2023-03-21T14:25:34.072Z,1010.56
2023-03-21T14:26:45.279Z,1010.54
2023-03-21T14:28:20.191Z,1010.59
2023-03-21T14:29:37.760Z,1010.56
2023-03-21T14:30:41.172Z,1010.49
2023-03-21T14:32:16.574Z,1010.53
2023-03-21T14:33:19.672Z,1010.48
2023-03-21T14:34:23.030Z,1010.50
2023-03-21T14:35:58.889Z,1010.43
2023-03-21T14:37:09.951Z,1010.38
2023-03-21T14:38:12.965Z,1010.42
2023-03-21T14:39:47.614Z,1010.38
2023-03-21T14:40:52.473Z,1010.41
2023-03-21T14:41:55.244Z,1010.36
2023-03-21T14:43:29.883Z,1010.30
2023-03-21T14:44:38.100Z,1010.33
2023-03-21T14:45:53.770Z,1010.36
2023-03-21T14:47:29.085Z,1010.38
2023-03-21T14:48:32.142Z,1010.41
2023-03-21T14:49:35.120Z,1010.37
2023-03-21T14:51:10.036Z,1010.35
2023-03-21T14:52:12.977Z,1010.31
2023-03-21T14:53:15.906Z,1010.30
2023-03-21T14:54:50.812Z,1010.29
2023-03-21T14:55:53.658Z,1010.28
2023-03-21T14:56:56.499Z,1010.29
2023-03-21T14:58:31.770Z,1010.31
2023-03-21T14:59:34.636Z,1010.30
2023-03-21T15:00:23.730Z,1010.25
2023-03-21T15:01:26.796Z,1010.29
2023-03-21T15:02:30.119Z,1010.26
2023-03-21T15:04:06.470Z,1010.24
2023-03-21T15:05:09.842Z,1010.27
2023-03-21T15:06:13.116Z,1010.21
2023-03-21T15:07:48.156Z,1010.27
2023-03-21T15:08:51.276Z,1010.27
2023-03-21T15:09:57.433Z,1010.26
2023-03-21T15:11:33.384Z,1010.29
2023-03-21T15:12:36.221Z,1010.30
2023-03-21T15:13:39.056Z,1010.24
2023-03-21T15:15:13.726Z,1010.23
2023-03-21T15:16:19.511Z,1010.22
2023-03-21T15:17:22.886Z,1010.31
2023-03-21T15:18:57.641Z,1010.29
2023-03-21T15:20:00.591Z,1010.30